createdAt,value
2022-12-22T00:02:39.798Z,40.20
2022-12-22T00:05:34.952Z,62.60
2022-12-22T00:08:22.474Z,59.30
2022-12-22T00:11:10.296Z,60.30
2022-12-22T00:13:59.950Z,28.20
2022-12-22T00:16:51.273Z,23.40
2022-12-22T00:19:37.821Z,39.00
2022-12-22T00:22:44.837Z,25.70
2022-12-22T00:25:35.029Z,19.00
2022-12-22T00:28:30.227Z,57.10
2022-12-22T00:31:17.304Z,47.50
2022-12-22T00:34:03.974Z,23.40
2022-12-22T00:36:50.590Z,49.50
2022-12-22T00:39:37.242Z,23.80
2022-12-22T00:42:23.843Z,55.20
2022-12-22T00:45:10.116Z,61.30
2022-12-22T00:47:56.951Z,68.20
2022-12-22T00:50:52.633Z,75.40
2022-12-22T00:53:42.794Z,75.10
2022-12-22T00:56:29.947Z,65.80
2022-12-22T00:59:18.540Z,60.80
2022-12-22T01:02:05.300Z,59.40
2022-12-22T01:04:52.278Z,49.90
2022-12-22T01:07:44.504Z,53.90
2022-12-22T01:10:32.180Z,41.80
2022-12-22T01:13:19.234Z,49.60
2022-12-22T01:16:06.021Z,54.20
2022-12-22T01:18:52.934Z,51.00
2022-12-22T01:21:39.936Z,22.70
2022-12-22T01:24:37.298Z,19.30
2022-12-22T01:27:23.815Z,35.60
2022-12-22T01:30:10.520Z,17.60
2022-12-22T01:32:57.013Z,41.40
2022-12-22T01:35:47.497Z,53.90
2022-12-22T01:38:34.108Z,52.80
2022-12-22T01:41:22.909Z,53.30
2022-12-22T01:44:09.802Z,30.70
2022-12-22T01:47:02.393Z,18.40
2022-12-22T01:49:58.432Z,20.50
2022-12-22T01:52:51.806Z,51.00
2022-12-22T01:55:41.104Z,45.90
2022-12-22T01:58:39.174Z,55.50
2022-12-22T02:01:25.883Z,19.30
2022-12-22T02:04:13.257Z,54.60
2022-12-22T02:07:01.294Z,65.00
2022-12-22T02:09:58.649Z,68.60
2022-12-22T02:12:59.901Z,81.40
2022-12-22T02:16:10.060Z,44.90
2022-12-22T02:19:06.363Z,58.50
2022-12-22T02:22:12.791Z,69.00
2022-12-22T02:25:08.720Z,79.80
2022-12-22T02:27:59.248Z,62.70
2022-12-22T02:30:47.093Z,56.60
2022-12-22T02:33:33.635Z,56.30
2022-12-22T02:36:32.388Z,41.90
2022-12-22T02:39:38.502Z,60.80
2022-12-22T02:42:31.741Z,22.60
2022-12-22T02:45:33.442Z,50.60
2022-12-22T02:48:30.332Z,27.70
2022-12-22T02:51:25.478Z,51.80
2022-12-22T02:54:13.971Z,48.90
2022-12-22T02:57:01.471Z,48.90
2022-12-22T02:59:48.100Z,48.60
2022-12-22T03:02:34.811Z,51.90
2022-12-22T03:05:21.563Z,36.00
2022-12-22T03:08:08.808Z,47.70
2022-12-22T03:10:55.701Z,44.00
2022-12-22T03:13:42.460Z,19.10
2022-12-22T03:16:29.042Z,44.70
2022-12-22T03:19:15.872Z,21.70
2022-12-22T03:22:02.488Z,53.20
2022-12-22T03:24:49.149Z,53.00
2022-12-22T03:27:17.122Z,51.10
2022-12-22T03:29:45.056Z,52.10
2022-12-22T03:32:13.161Z,32.50
2022-12-22T03:34:41.687Z,22.00
2022-12-22T03:37:09.766Z,25.70
2022-12-22T03:39:37.994Z,34.10
2022-12-22T03:42:24.834Z,21.80
2022-12-22T03:45:11.258Z,24.90
2022-12-22T03:47:39.188Z,52.00
2022-12-22T03:50:07.590Z,49.20
2022-12-22T03:52:35.638Z,48.00
2022-12-22T03:55:03.871Z,48.60
2022-12-22T03:57:31.982Z,33.90
2022-12-22T03:59:59.934Z,41.50
2022-12-22T04:02:28.254Z,43.70
2022-12-22T04:04:56.473Z,21.90
2022-12-22T04:07:24.409Z,20.50
2022-12-22T04:10:11.211Z,42.40
2022-12-22T04:12:54.496Z,55.30
2022-12-22T04:15:28.855Z,51.70
2022-12-22T04:17:58.357Z,52.00
2022-12-22T04:20:27.696Z,27.30
2022-12-22T04:22:56.604Z,27.90
2022-12-22T04:25:25.858Z,15.10
2022-12-22T04:27:53.890Z,18.00
2022-12-22T04:30:21.937Z,44.50
2022-12-22T04:32:49.943Z,49.10
2022-12-22T04:35:18.033Z,52.50
2022-12-22T04:37:45.948Z,52.90
2022-12-22T04:40:14.146Z,50.20
2022-12-22T04:42:42.414Z,51.10
2022-12-22T04:45:11.239Z,54.10
2022-12-22T04:47:39.334Z,56.20
2022-12-22T04:50:08.110Z,53.10
2022-12-22T04:52:36.913Z,51.10
2022-12-22T04:55:06.632Z,50.30
2022-12-22T04:57:40.301Z,47.80
2022-12-22T05:00:10.881Z,36.90
2022-12-22T05:02:39.036Z,19.90
2022-12-22T05:05:07.845Z,50.10
2022-12-22T05:07:36.091Z,53.50
2022-12-22T05:10:05.322Z,44.90
2022-12-22T05:12:52.155Z,27.40
2022-12-22T05:15:21.411Z,25.90
2022-12-22T05:17:49.525Z,38.00
2022-12-22T05:20:18.077Z,48.80
2022-12-22T05:22:46.410Z,18.80
2022-12-22T05:25:20.050Z,51.00
2022-12-22T05:27:50.514Z,54.70
2022-12-22T05:30:19.998Z,52.90
2022-12-22T05:32:48.404Z,53.00
2022-12-22T05:35:16.579Z,38.90
2022-12-22T05:37:44.745Z,34.30
2022-12-22T05:40:12.936Z,22.10
2022-12-22T05:42:41.197Z,18.70
2022-12-22T05:45:16.428Z,22.90
2022-12-22T05:48:02.733Z,21.30
2022-12-22T05:50:32.387Z,17.30
2022-12-22T05:53:14.164Z,50.20
2022-12-22T05:55:42.133Z,52.10
2022-12-22T05:58:10.137Z,46.90
2022-12-22T06:00:38.152Z,29.50
2022-12-22T06:03:06.350Z,33.80
2022-12-22T06:05:34.489Z,24.60
2022-12-22T06:08:02.500Z,26.10
2022-12-22T06:10:30.560Z,49.30
2022-12-22T06:12:58.645Z,47.70
2022-12-22T06:15:26.830Z,46.90
2022-12-22T06:17:55.820Z,47.20
2022-12-22T06:20:24.017Z,47.10
2022-12-22T06:22:52.078Z,34.30
2022-12-22T06:25:20.164Z,22.10
2022-12-22T06:27:48.281Z,45.10
2022-12-22T06:30:17.069Z,48.90
2022-12-22T06:32:45.150Z,38.50
2022-12-22T06:35:13.523Z,44.90
2022-12-22T06:37:41.783Z,21.00
2022-12-22T06:40:10.767Z,19.90
2022-12-22T06:43:02.297Z,45.80
2022-12-22T06:45:43.745Z,44.00
2022-12-22T06:48:13.385Z,40.70
2022-12-22T06:50:41.623Z,43.00
2022-12-22T06:53:10.244Z,45.50
2022-12-22T06:55:38.515Z,44.10
2022-12-22T06:58:07.418Z,45.20
2022-12-22T07:00:35.741Z,34.70
2022-12-22T07:03:04.124Z,14.60
2022-12-22T07:05:32.787Z,17.30
2022-12-22T07:08:07.674Z,40.20
2022-12-22T07:10:55.470Z,21.90
2022-12-22T07:13:25.681Z,44.30
2022-12-22T07:16:00.531Z,30.10
2022-12-22T07:18:34.602Z,35.40
2022-12-22T07:21:04.637Z,25.00
2022-12-22T07:23:33.299Z,23.70
2022-12-22T07:26:01.928Z,45.10
2022-12-22T07:28:33.161Z,25.10
2022-12-22T07:31:01.475Z,44.50
2022-12-22T07:33:29.601Z,25.70
2022-12-22T07:36:18.579Z,47.30
2022-12-22T07:38:49.775Z,52.90
2022-12-22T07:41:38.311Z,24.50
2022-12-22T07:44:08.285Z,28.80
2022-12-22T07:46:38.797Z,41.20
2022-12-22T07:49:26.566Z,37.80
2022-12-22T07:51:57.849Z,27.80
2022-12-22T07:54:27.435Z,28.30
2022-12-22T07:56:55.592Z,24.40
2022-12-22T07:59:23.788Z,37.90
2022-12-22T08:01:52.035Z,29.60
2022-12-22T08:04:20.345Z,36.20
2022-12-22T08:06:48.487Z,39.40
2022-12-22T08:09:18.151Z,39.00
2022-12-22T08:11:46.300Z,30.40
2022-12-22T08:14:14.333Z,22.90
2022-12-22T08:16:42.602Z,24.20
2022-12-22T08:19:11.387Z,33.00
2022-12-22T08:21:39.453Z,21.90
2022-12-22T08:24:08.119Z,34.50
2022-12-22T08:26:44.447Z,26.00
2022-12-22T08:29:27.197Z,22.90
2022-12-22T08:31:56.005Z,17.40
2022-12-22T08:34:24.370Z,28.40
2022-12-22T08:36:56.101Z,11.00
2022-12-22T08:39:26.452Z,14.40
2022-12-22T08:41:55.150Z,17.20
2022-12-22T08:44:26.351Z,29.30
2022-12-22T08:46:56.916Z,25.00
2022-12-22T08:49:26.394Z,14.60
2022-12-22T08:51:54.792Z,15.90
2022-12-22T08:54:30.544Z,27.70
2022-12-22T08:56:58.763Z,36.00
2022-12-22T08:59:26.793Z,33.20
2022-12-22T09:01:55.020Z,34.30
2022-12-22T09:04:25.588Z,34.40
2022-12-22T09:06:53.848Z,31.50
2022-12-22T09:09:22.606Z,31.90
2022-12-22T09:11:51.395Z,34.90
2022-12-22T09:14:19.473Z,34.60
2022-12-22T09:16:47.546Z,25.20
2022-12-22T09:19:15.812Z,37.70
2022-12-22T09:21:45.185Z,35.10
2022-12-22T09:24:14.971Z,35.00
2022-12-22T09:26:43.366Z,35.60
2022-12-22T09:29:12.269Z,35.30
2022-12-22T09:31:41.686Z,36.50
2022-12-22T09:34:16.820Z,34.20
2022-12-22T09:36:46.851Z,33.50
2022-12-22T09:39:16.006Z,35.00
2022-12-22T09:41:48.324Z,25.20
2022-12-22T09:44:28.575Z,38.60
2022-12-22T09:47:00.875Z,26.10
2022-12-22T09:49:29.855Z,36.60
2022-12-22T09:52:01.522Z,34.80
2022-12-22T09:54:31.094Z,34.30
2022-12-22T09:56:59.137Z,25.00
2022-12-22T09:59:28.778Z,36.00
2022-12-22T10:02:35.708Z,19.70
2022-12-22T10:05:15.112Z,34.20
2022-12-22T10:07:44.566Z,35.80
2022-12-22T10:10:28.263Z,27.30
2022-12-22T10:12:58.916Z,34.00
2022-12-22T10:15:34.118Z,30.20
2022-12-22T10:18:10.741Z,24.20
2022-12-22T10:20:39.993Z,19.70
2022-12-22T10:23:26.260Z,26.60
2022-12-22T10:28:49.194Z,34.60
2022-12-22T10:31:26.974Z,33.90
2022-12-22T10:33:58.042Z,33.20
2022-12-22T10:36:32.308Z,35.40
2022-12-22T10:39:09.345Z,33.00
2022-12-22T10:41:43.097Z,25.10
2022-12-22T10:44:13.739Z,30.10
2022-12-22T10:46:53.578Z,31.70
2022-12-22T10:49:24.539Z,18.70
2022-12-22T10:51:56.854Z,20.80
2022-12-22T10:54:36.236Z,24.10
2022-12-22T10:57:04.167Z,17.80
2022-12-22T10:59:34.038Z,19.10
2022-12-22T11:02:20.979Z,29.10
2022-12-22T11:04:54.377Z,33.00
2022-12-22T11:07:24.191Z,32.60
2022-12-22T11:09:52.333Z,31.80
2022-12-22T11:12:45.824Z,33.70
2022-12-22T11:15:45.533Z,32.50
2022-12-22T11:18:31.874Z,31.60
2022-12-22T11:21:24.314Z,30.60
2022-12-22T11:24:25.657Z,22.30
2022-12-22T11:27:27.972Z,19.10
2022-12-22T11:30:09.552Z,27.40
2022-12-22T11:32:57.829Z,30.80
2022-12-22T11:35:31.373Z,32.40
2022-12-22T11:38:16.480Z,31.40
2022-12-22T11:40:49.191Z,32.20
2022-12-22T11:46:07.411Z,29.20
2022-12-22T11:49:06.168Z,32.90
2022-12-22T11:52:10.387Z,32.10
2022-12-22T11:55:02.789Z,33.50
2022-12-22T11:58:05.965Z,28.40
2022-12-22T12:03:51.599Z,32.00
2022-12-22T12:06:37.634Z,34.10
2022-12-22T12:09:11.944Z,31.80
2022-12-22T12:11:51.413Z,23.70
2022-12-22T12:14:23.073Z,23.70
2022-12-22T12:17:26.708Z,21.70
2022-12-22T12:20:27.132Z,24.00
2022-12-22T12:23:26.248Z,19.50
2022-12-22T12:26:05.343Z,19.10
2022-12-22T12:28:55.386Z,18.80
2022-12-22T12:31:41.235Z,33.20
2022-12-22T12:34:15.861Z,30.40
2022-12-22T12:36:48.949Z,28.90
2022-12-22T12:39:51.818Z,29.70
2022-12-22T12:42:34.002Z,37.10
2022-12-22T12:45:02.946Z,34.90
2022-12-22T12:47:33.673Z,40.10
2022-12-22T12:50:31.010Z,31.00
2022-12-22T12:52:58.898Z,23.50
2022-12-22T12:55:34.144Z,22.40
2022-12-22T12:58:04.334Z,22.40
2022-12-22T13:00:32.917Z,35.00
2022-12-22T13:03:02.517Z,30.40
2022-12-22T13:05:54.694Z,24.10
2022-12-22T13:08:26.850Z,43.50
2022-12-22T13:10:54.800Z,30.10
2022-12-22T13:13:25.784Z,47.50
2022-12-22T13:15:59.786Z,41.80
2022-12-22T13:18:30.758Z,38.80
2022-12-22T13:21:50.749Z,33.40
2022-12-22T13:24:24.137Z,41.90
2022-12-22T13:26:51.876Z,38.20
2022-12-22T13:29:22.865Z,38.80
2022-12-22T13:32:03.950Z,29.70
2022-12-22T13:34:57.641Z,26.50
2022-12-22T13:37:30.134Z,39.70
2022-12-22T13:40:18.177Z,37.00
2022-12-22T13:43:00.977Z,30.80
2022-12-22T13:45:31.579Z,26.80
2022-12-22T13:48:02.748Z,39.20
2022-12-22T13:50:38.586Z,38.80
2022-12-22T13:53:10.308Z,53.30
2022-12-22T13:55:39.057Z,68.50
2022-12-22T13:58:20.968Z,39.90
2022-12-22T14:01:14.202Z,52.90
2022-12-22T14:04:02.359Z,55.50
2022-12-22T14:06:34.204Z,48.50
2022-12-22T14:09:20.755Z,42.70
2022-12-22T14:12:00.844Z,36.30
2022-12-22T14:14:31.730Z,40.80
2022-12-22T14:17:00.897Z,40.40
2022-12-22T14:19:38.129Z,40.90
2022-12-22T14:22:14.677Z,41.90
2022-12-22T14:24:49.290Z,40.00
2022-12-22T14:27:42.000Z,41.40
2022-12-22T14:30:38.075Z,29.60
2022-12-22T14:33:28.349Z,48.50
2022-12-22T14:36:18.385Z,37.20
2022-12-22T14:38:49.659Z,53.50
2022-12-22T14:41:41.461Z,36.00
2022-12-22T14:44:13.085Z,27.20
2022-12-22T14:46:42.864Z,60.20
2022-12-22T14:49:14.832Z,40.20
2022-12-22T14:51:43.598Z,44.70
2022-12-22T14:54:20.732Z,29.10
2022-12-22T14:56:51.804Z,29.50
2022-12-22T14:59:27.684Z,27.40
2022-12-22T15:02:03.809Z,33.00
2022-12-22T15:04:32.097Z,48.70
2022-12-22T15:07:54.287Z,44.00
2022-12-22T15:10:16.384Z,43.80
2022-12-22T15:12:46.474Z,42.50
2022-12-22T15:15:21.296Z,52.90
2022-12-22T15:17:52.099Z,38.40
2022-12-22T15:20:23.448Z,31.30
2022-12-22T15:22:53.228Z,26.70
2022-12-22T15:25:23.894Z,45.00
2022-12-22T15:27:52.275Z,29.30
2022-12-22T15:30:28.937Z,22.90
2022-12-22T15:32:57.214Z,35.70
2022-12-22T15:35:30.711Z,23.90
2022-12-22T15:37:59.859Z,41.10
2022-12-22T15:40:29.062Z,38.10
2022-12-22T15:42:57.101Z,25.70
2022-12-22T15:45:25.265Z,38.10
2022-12-22T15:47:55.319Z,26.00
2022-12-22T15:50:38.677Z,64.70
2022-12-22T15:53:11.827Z,59.60
2022-12-22T15:55:43.157Z,66.30
2022-12-22T15:58:13.411Z,101.70
2022-12-22T16:00:41.569Z,48.80
2022-12-22T16:03:10.793Z,48.40
2022-12-22T16:05:40.451Z,47.30
2022-12-22T16:08:18.476Z,80.80
2022-12-22T16:10:47.660Z,49.80
2022-12-22T16:13:17.028Z,35.90
2022-12-22T16:15:45.788Z,33.70
2022-12-22T16:18:13.933Z,46.30
2022-12-22T16:20:43.297Z,26.70
2022-12-22T16:23:21.232Z,51.70
2022-12-22T16:25:55.494Z,66.30
2022-12-22T16:28:27.019Z,48.30
2022-12-22T16:30:55.070Z,31.00
2022-12-22T16:33:23.188Z,43.50
2022-12-22T16:35:51.301Z,30.60
2022-12-22T16:38:19.758Z,36.60
2022-12-22T16:40:51.756Z,47.40
2022-12-22T16:46:20.001Z,44.30
2022-12-22T16:48:57.248Z,45.90
2022-12-22T16:51:33.971Z,46.60
2022-12-22T16:54:02.673Z,35.70
2022-12-22T16:56:31.644Z,71.40
2022-12-22T16:59:01.083Z,49.30
2022-12-22T17:01:41.251Z,50.10
2022-12-22T17:04:30.720Z,43.70
2022-12-22T17:07:01.854Z,32.90
2022-12-22T17:09:43.080Z,82.50
2022-12-22T17:12:21.091Z,104.30
2022-12-22T17:14:51.658Z,86.30
2022-12-22T17:17:30.334Z,63.50
2022-12-22T17:20:00.037Z,86.10
2022-12-22T17:22:30.452Z,72.00
2022-12-22T17:25:02.417Z,68.50
2022-12-22T17:27:32.731Z,45.50
2022-12-22T17:30:05.406Z,54.30
2022-12-22T17:32:33.620Z,37.40
2022-12-22T17:35:02.590Z,62.60
2022-12-22T17:37:30.611Z,47.00
2022-12-22T17:40:01.667Z,49.80
2022-12-22T17:42:32.179Z,53.90
2022-12-22T17:45:00.870Z,58.00
2022-12-22T17:47:34.836Z,57.60
2022-12-22T17:50:10.752Z,65.30
2022-12-22T17:52:39.443Z,63.10
2022-12-22T17:55:40.431Z,63.40
2022-12-22T17:58:13.521Z,69.00
2022-12-22T18:00:42.315Z,53.10
2022-12-22T18:03:15.303Z,35.80
2022-12-22T18:05:47.331Z,64.50
2022-12-22T18:08:21.216Z,68.50
2022-12-22T18:10:49.830Z,70.10
2022-12-22T18:13:22.748Z,70.90
2022-12-22T18:15:50.842Z,57.20
2022-12-22T18:18:20.971Z,47.00
2022-12-22T18:21:05.767Z,54.50
2022-12-22T18:23:37.625Z,74.80
2022-12-22T18:26:08.472Z,93.40
2022-12-22T18:28:36.918Z,67.50
2022-12-22T18:31:05.214Z,75.20
2022-12-22T18:33:33.457Z,65.20
2022-12-22T18:36:02.177Z,61.40
2022-12-22T18:38:32.704Z,72.70
2022-12-22T18:41:00.836Z,56.60
2022-12-22T18:43:28.806Z,36.10
2022-12-22T18:45:56.926Z,41.60
2022-12-22T18:48:24.950Z,28.20
2022-12-22T18:50:53.049Z,37.60
2022-12-22T18:53:32.078Z,32.00
2022-12-22T18:56:00.115Z,36.70
2022-12-22T18:58:28.213Z,28.40
2022-12-22T19:00:56.918Z,30.50
2022-12-22T19:03:29.418Z,38.90
2022-12-22T19:05:58.721Z,35.60
2022-12-22T19:08:31.631Z,57.70
2022-12-22T19:11:05.206Z,65.50
2022-12-22T19:13:40.555Z,51.10
2022-12-22T19:16:13.971Z,33.10
2022-12-22T19:18:42.417Z,47.80
2022-12-22T19:21:15.624Z,57.10
2022-12-22T19:23:44.259Z,51.90
2022-12-22T19:26:30.402Z,54.50
2022-12-22T19:29:01.372Z,40.50
2022-12-22T19:31:33.116Z,51.30
2022-12-22T19:34:05.765Z,43.10
2022-12-22T19:39:05.477Z,25.70
2022-12-22T19:41:40.217Z,25.30
2022-12-22T19:44:18.976Z,56.30
2022-12-22T19:46:47.889Z,51.50
2022-12-22T19:49:21.664Z,50.70
2022-12-22T19:51:50.548Z,48.10
2022-12-22T19:54:21.540Z,43.20
2022-12-22T19:56:55.787Z,49.40
2022-12-22T19:59:37.599Z,46.00
2022-12-22T20:02:21.703Z,47.10
2022-12-22T20:04:50.681Z,40.90
2022-12-22T20:07:21.256Z,44.30
2022-12-22T20:09:49.632Z,26.30
2022-12-22T20:12:20.573Z,47.60
2022-12-22T20:14:48.627Z,33.40
2022-12-22T20:17:16.874Z,23.10
2022-12-22T20:19:44.967Z,23.60
2022-12-22T20:22:21.290Z,41.00
2022-12-22T20:24:51.207Z,41.60
2022-12-22T20:27:29.893Z,28.40
2022-12-22T20:29:57.943Z,28.10
2022-12-22T20:32:29.052Z,43.70
2022-12-22T20:34:57.409Z,48.60
2022-12-22T20:37:25.659Z,47.90
2022-12-22T20:39:53.706Z,47.50
2022-12-22T20:42:24.950Z,49.30
2022-12-22T20:45:02.136Z,51.50
2022-12-22T20:47:35.043Z,34.00
2022-12-22T20:50:27.637Z,39.70
2022-12-22T20:52:56.877Z,23.40
2022-12-22T20:55:27.482Z,25.90
2022-12-22T20:57:55.539Z,49.10
2022-12-22T21:00:26.617Z,50.00
2022-12-22T21:02:55.068Z,48.50
2022-12-22T21:05:23.393Z,48.70
2022-12-22T21:07:51.341Z,48.60
2022-12-22T21:10:26.420Z,50.30
2022-12-22T21:12:54.753Z,48.50
2022-12-22T21:15:26.167Z,50.80
2022-12-22T21:17:57.999Z,38.10
2022-12-22T21:20:30.597Z,49.30
2022-12-22T21:22:59.382Z,26.60
2022-12-22T21:25:27.540Z,47.20
2022-12-22T21:27:56.538Z,48.10
2022-12-22T21:30:28.469Z,48.00
2022-12-22T21:32:57.169Z,32.70
2022-12-22T21:35:31.208Z,27.70
2022-12-22T21:37:59.441Z,26.10
2022-12-22T21:40:30.313Z,47.00
2022-12-22T21:42:58.832Z,30.20
2022-12-22T21:45:30.336Z,39.60
2022-12-22T21:48:01.085Z,47.20
2022-12-22T21:50:35.014Z,37.00
2022-12-22T21:53:04.644Z,42.20
2022-12-22T21:55:37.434Z,23.40
2022-12-22T21:58:12.514Z,24.80
2022-12-22T22:00:46.457Z,22.70
2022-12-22T22:03:16.567Z,21.80
2022-12-22T22:05:45.855Z,28.50
2022-12-22T22:08:27.260Z,45.20
2022-12-22T22:10:56.329Z,44.20
2022-12-22T22:13:27.946Z,45.60
2022-12-22T22:16:01.154Z,45.30
2022-12-22T22:18:29.410Z,44.50
2022-12-22T22:20:59.836Z,42.90
2022-12-22T22:23:28.345Z,46.10
2022-12-22T22:25:57.955Z,30.40
2022-12-22T22:28:26.891Z,47.80
2022-12-22T22:30:55.641Z,47.60
2022-12-22T22:33:23.978Z,43.50
2022-12-22T22:35:56.280Z,46.80
2022-12-22T22:38:27.538Z,47.90
2022-12-22T22:41:01.929Z,43.60
2022-12-22T22:43:30.014Z,48.40
2022-12-22T22:45:58.375Z,33.50
2022-12-22T22:48:26.677Z,46.20
2022-12-22T22:50:55.097Z,49.80
2022-12-22T22:53:23.678Z,30.20
2022-12-22T22:55:51.854Z,24.50
2022-12-22T22:58:20.059Z,31.70
2022-12-22T23:00:48.783Z,48.60
2022-12-22T23:03:17.634Z,45.80
2022-12-22T23:05:46.258Z,45.70
2022-12-22T23:08:14.320Z,46.60
2022-12-22T23:10:48.801Z,46.90
2022-12-22T23:13:16.893Z,48.50
2022-12-22T23:16:03.676Z,53.10
2022-12-22T23:18:34.896Z,53.20
2022-12-22T23:21:06.065Z,53.80
2022-12-22T23:23:35.289Z,41.10
2022-12-22T23:26:04.236Z,31.20
2022-12-22T23:28:33.874Z,49.50
2022-12-22T23:31:02.254Z,49.80
2022-12-22T23:33:33.545Z,47.90
2022-12-22T23:36:01.709Z,48.70
2022-12-22T23:38:30.103Z,45.20
2022-12-22T23:41:06.943Z,27.20
2022-12-22T23:43:35.151Z,30.30
2022-12-22T23:46:09.538Z,24.90
2022-12-22T23:48:39.948Z,29.80
2022-12-22T23:51:10.360Z,26.30
2022-12-22T23:53:39.105Z,33.20
2022-12-22T23:56:07.415Z,37.90
2022-12-22T23:58:35.779Z,35.60
